sensor_id;sensor_type;location;lat;lon;timestamp;pressure;altitude;pressure_sealevel;temperature;humidity
70571;BME280;58135;50.948;-1.458;2022-12-18T00:00:43;101769.74;;;2.81;15.82
70571;BME280;58135;50.948;-1.458;2022-12-18T00:03:08;101767.00;;;4.52;16.04
70571;BME280;58135;50.948;-1.458;2022-12-18T00:05:33;101762.12;;;3.51;15.98
70571;BME280;58135;50.948;-1.458;2022-12-18T00:07:59;101761.61;;;4.28;16.10
70571;BME280;58135;50.948;-1.458;2022-12-18T00:10:24;101762.94;;;2.42;16.21
70571;BME280;58135;50.948;-1.458;2022-12-18T00:12:49;101760.39;;;3.41;16.44
70571;BME280;58135;50.948;-1.458;2022-12-18T00:15:14;101757.07;;;4.36;16.20
70571;BME280;58135;50.948;-1.458;2022-12-18T00:17:39;101753.50;;;0.61;16.31
70571;BME280;58135;50.948;-1.458;2022-12-18T00:20:06;101753.52;;;3.29;16.41
70571;BME280;58135;50.948;-1.458;2022-12-18T00:22:30;101747.85;;;3.52;16.46
70571;BME280;58135;50.948;-1.458;2022-12-18T00:24:56;101737.46;;;3.64;16.45
70571;BME280;58135;50.948;-1.458;2022-12-18T00:27:21;101731.57;;;3.54;16.41
70571;BME280;58135;50.948;-1.458;2022-12-18T00:29:48;101732.57;;;2.65;16.36
70571;BME280;58135;50.948;-1.458;2022-12-18T00:32:12;101729.63;;;3.49;16.30
70571;BME280;58135;50.948;-1.458;2022-12-18T00:34:37;101725.65;;;3.33;16.67
70571;BME280;58135;50.948;-1.458;2022-12-18T00:37:03;101720.09;;;3.15;16.64
70571;BME280;58135;50.948;-1.458;2022-12-18T00:39:28;101720.90;;;4.90;16.46
70571;BME280;58135;50.948;-1.458;2022-12-18T00:41:53;101715.77;;;4.11;16.29
70571;BME280;58135;50.948;-1.458;2022-12-18T00:44:19;101712.72;;;2.22;16.11
70571;BME280;58135;50.948;-1.458;2022-12-18T00:46:45;101705.29;;;3.20;16.42
70571;BME280;58135;50.948;-1.458;2022-12-18T00:49:10;101700.58;;;2.22;16.57
70571;BME280;58135;50.948;-1.458;2022-12-18T00:51:36;101703.39;;;2.33;16.74
70571;BME280;58135;50.948;-1.458;2022-12-18T00:54:02;101695.60;;;3.29;16.60
70571;BME280;58135;50.948;-1.458;2022-12-18T00:56:27;101693.28;;;4.31;16.34
70571;BME280;58135;50.948;-1.458;2022-12-18T00:58:53;101693.17;;;1.65;16.42
70571;BME280;58135;50.948;-1.458;2022-12-18T01:01:18;101684.22;;;2.50;16.16
70571;BME280;58135;50.948;-1.458;2022-12-18T01:03:43;101676.20;;;5.17;16.29
70571;BME280;58135;50.948;-1.458;2022-12-18T01:06:11;101673.95;;;5.31;16.43
70571;BME280;58135;50.948;-1.458;2022-12-18T01:08:35;101667.23;;;2.77;16.50
70571;BME280;58135;50.948;-1.458;2022-12-18T01:11:00;101664.15;;;1.93;16.29
70571;BME280;58135;50.948;-1.458;2022-12-18T01:13:25;101660.60;;;3.65;16.44
70571;BME280;58135;50.948;-1.458;2022-12-18T01:15:51;101654.94;;;1.96;16.40
70571;BME280;58135;50.948;-1.458;2022-12-18T01:18:16;101655.88;;;3.83;16.11
70571;BME280;58135;50.948;-1.458;2022-12-18T01:20:41;101659.16;;;2.93;16.11
70571;BME280;58135;50.948;-1.458;2022-12-18T01:23:07;101663.63;;;3.86;16.23
70571;BME280;58135;50.948;-1.458;2022-12-18T01:25:35;101664.76;;;1.94;16.23
70571;BME280;58135;50.948;-1.458;2022-12-18T01:27:58;101665.64;;;4.49;16.13
70571;BME280;58135;50.948;-1.458;2022-12-18T01:30:23;101665.83;;;2.65;16.09
70571;BME280;58135;50.948;-1.458;2022-12-18T01:32:48;101663.97;;;2.64;16.19
70571;BME280;58135;50.948;-1.458;2022-12-18T01:35:14;101660.08;;;1.73;16.06
70571;BME280;58135;50.948;-1.458;2022-12-18T01:37:39;101662.60;;;3.32;16.36
70571;BME280;58135;50.948;-1.458;2022-12-18T01:40:06;101669.99;;;2.54;16.35
70571;BME280;58135;50.948;-1.458;2022-12-18T01:42:30;101669.15;;;3.40;16.16
70571;BME280;58135;50.948;-1.458;2022-12-18T01:44:59;101674.07;;;2.41;16.16
70571;BME280;58135;50.948;-1.458;2022-12-18T01:47:24;101677.40;;;3.18;16.04
70571;BME280;58135;50.948;-1.458;2022-12-18T01:49:46;101678.01;;;2.23;16.29
70571;BME280;58135;50.948;-1.458;2022-12-18T01:52:13;101676.88;;;3.27;16.26
70571;BME280;58135;50.948;-1.458;2022-12-18T01:54:37;101678.57;;;3.46;16.17
70571;BME280;58135;50.948;-1.458;2022-12-18T01:57:03;101679.03;;;2.71;16.26
70571;BME280;58135;50.948;-1.458;2022-12-18T01:59:29;101678.13;;;2.76;16.10
70571;BME280;58135;50.948;-1.458;2022-12-18T02:01:54;101681.74;;;3.78;16.07
70571;BME280;58135;50.948;-1.458;2022-12-18T02:04:21;101677.36;;;2.97;16.05
70571;BME280;58135;50.948;-1.458;2022-12-18T02:06:46;101680.75;;;4.18;16.07
70571;BME280;58135;50.948;-1.458;2022-12-18T02:09:14;101683.79;;;4.26;15.98
70571;BME280;58135;50.948;-1.458;2022-12-18T02:11:42;101679.65;;;4.30;15.97
70571;BME280;58135;50.948;-1.458;2022-12-18T02:14:07;101670.56;;;5.24;15.81
70571;BME280;58135;50.948;-1.458;2022-12-18T02:16:35;101665.43;;;2.45;15.85
70571;BME280;58135;50.948;-1.458;2022-12-18T02:18:56;101662.98;;;4.41;15.86
70571;BME280;58135;50.948;-1.458;2022-12-18T02:21:25;101665.12;;;2.73;15.80
70571;BME280;58135;50.948;-1.458;2022-12-18T02:23:50;101657.07;;;1.65;15.73
70571;BME280;58135;50.948;-1.458;2022-12-18T02:26:16;101651.25;;;3.25;15.61
70571;BME280;58135;50.948;-1.458;2022-12-18T02:28:38;101643.91;;;3.09;15.88
70571;BME280;58135;50.948;-1.458;2022-12-18T02:31:01;101640.89;;;3.90;15.86
70571;BME280;58135;50.948;-1.458;2022-12-18T02:33:26;101640.17;;;2.90;15.81
70571;BME280;58135;50.948;-1.458;2022-12-18T02:35:51;101645.07;;;2.97;15.88
70571;BME280;58135;50.948;-1.458;2022-12-18T02:38:16;101643.55;;;4.79;15.95
70571;BME280;58135;50.948;-1.458;2022-12-18T02:40:42;101642.60;;;3.27;15.83
70571;BME280;58135;50.948;-1.458;2022-12-18T02:43:08;101637.67;;;3.33;15.87
70571;BME280;58135;50.948;-1.458;2022-12-18T02:45:32;101629.15;;;3.25;15.85
70571;BME280;58135;50.948;-1.458;2022-12-18T02:47:57;101621.12;;;4.22;15.88
70571;BME280;58135;50.948;-1.458;2022-12-18T02:50:29;101618.85;;;4.16;15.96
70571;BME280;58135;50.948;-1.458;2022-12-18T02:52:56;101616.44;;;3.05;15.76
70571;BME280;58135;50.948;-1.458;2022-12-18T02:55:23;101611.29;;;2.94;15.96
70571;BME280;58135;50.948;-1.458;2022-12-18T02:57:44;101609.88;;;3.72;16.02
70571;BME280;58135;50.948;-1.458;2022-12-18T03:00:08;101614.38;;;3.50;15.86
70571;BME280;58135;50.948;-1.458;2022-12-18T03:02:36;101607.38;;;2.72;16.06
70571;BME280;58135;50.948;-1.458;2022-12-18T03:04:59;101601.43;;;2.86;15.96
70571;BME280;58135;50.948;-1.458;2022-12-18T03:07:26;101592.87;;;4.76;16.02
70571;BME280;58135;50.948;-1.458;2022-12-18T03:09:49;101591.15;;;4.87;16.07
70571;BME280;58135;50.948;-1.458;2022-12-18T03:12:18;101589.72;;;3.28;16.07
70571;BME280;58135;50.948;-1.458;2022-12-18T03:14:37;101592.54;;;3.37;15.89
70571;BME280;58135;50.948;-1.458;2022-12-18T03:17:04;101594.78;;;5.29;16.11
70571;BME280;58135;50.948;-1.458;2022-12-18T03:19:28;101593.14;;;2.70;16.04
70571;BME280;58135;50.948;-1.458;2022-12-18T03:21:54;101591.44;;;3.77;16.08
70571;BME280;58135;50.948;-1.458;2022-12-18T03:24:19;101589.52;;;3.93;16.02
70571;BME280;58135;50.948;-1.458;2022-12-18T03:26:47;101595.12;;;4.11;16.02
70571;BME280;58135;50.948;-1.458;2022-12-18T03:29:13;101597.69;;;3.21;16.01
70571;BME280;58135;50.948;-1.458;2022-12-18T03:31:36;101593.63;;;4.20;15.97
70571;BME280;58135;50.948;-1.458;2022-12-18T03:34:04;101596.78;;;3.46;15.94
70571;BME280;58135;50.948;-1.458;2022-12-18T03:36:26;101600.01;;;5.25;15.93
70571;BME280;58135;50.948;-1.458;2022-12-18T03:38:51;101601.56;;;2.46;15.84
70571;BME280;58135;50.948;-1.458;2022-12-18T03:41:22;101596.62;;;2.99;15.90
70571;BME280;58135;50.948;-1.458;2022-12-18T03:43:48;101597.00;;;3.99;16.17
70571;BME280;58135;50.948;-1.458;2022-12-18T03:46:15;101595.81;;;5.11;16.01
70571;BME280;58135;50.948;-1.458;2022-12-18T03:48:39;101592.24;;;4.28;16.22
70571;BME280;58135;50.948;-1.458;2022-12-18T03:51:01;101588.87;;;4.64;16.08
70571;BME280;58135;50.948;-1.458;2022-12-18T03:53:32;101588.91;;;3.87;16.02
70571;BME280;58135;50.948;-1.458;2022-12-18T03:55:50;101590.02;;;3.12;16.04
70571;BME280;58135;50.948;-1.458;2022-12-18T03:58:19;101592.70;;;4.20;16.09
70571;BME280;58135;50.948;-1.458;2022-12-18T04:00:41;101587.87;;;4.57;16.05
70571;BME280;58135;50.948;-1.458;2022-12-18T04:03:08;101585.67;;;5.59;16.06
70571;BME280;58135;50.948;-1.458;2022-12-18T04:05:33;101587.61;;;5.84;15.98
70571;BME280;58135;50.948;-1.458;2022-12-18T04:07:59;101584.68;;;4.29;15.90
70571;BME280;58135;50.948;-1.458;2022-12-18T04:10:23;101585.22;;;5.23;15.96
70571;BME280;58135;50.948;-1.458;2022-12-18T04:12:48;101585.71;;;4.40;15.86
70571;BME280;58135;50.948;-1.458;2022-12-18T04:15:14;101578.99;;;4.24;15.97
70571;BME280;58135;50.948;-1.458;2022-12-18T04:17:46;101568.32;;;5.12;15.95
70571;BME280;58135;50.948;-1.458;2022-12-18T04:20:05;101561.55;;;4.36;16.02
70571;BME280;58135;50.948;-1.458;2022-12-18T04:22:30;101555.72;;;5.18;15.95
70571;BME280;58135;50.948;-1.458;2022-12-18T04:24:55;101543.50;;;3.45;15.92
70571;BME280;58135;50.948;-1.458;2022-12-18T04:27:21;101534.60;;;5.12;16.07
70571;BME280;58135;50.948;-1.458;2022-12-18T04:29:46;101526.70;;;5.16;16.05
70571;BME280;58135;50.948;-1.458;2022-12-18T04:32:11;101523.83;;;6.31;16.07
70571;BME280;58135;50.948;-1.458;2022-12-18T04:34:37;101516.77;;;5.52;16.02
70571;BME280;58135;50.948;-1.458;2022-12-18T04:37:03;101510.76;;;4.08;16.17
70571;BME280;58135;50.948;-1.458;2022-12-18T04:39:28;101509.45;;;4.18;16.23
70571;BME280;58135;50.948;-1.458;2022-12-18T04:41:54;101509.55;;;6.01;16.16
70571;BME280;58135;50.948;-1.458;2022-12-18T04:44:19;101506.56;;;3.41;16.27
70571;BME280;58135;50.948;-1.458;2022-12-18T04:46:45;101505.10;;;6.07;16.19
70571;BME280;58135;50.948;-1.458;2022-12-18T04:49:10;101496.66;;;4.55;16.17
70571;BME280;58135;50.948;-1.458;2022-12-18T04:51:36;101499.49;;;2.99;16.09
70571;BME280;58135;50.948;-1.458;2022-12-18T04:54:01;101498.46;;;4.79;15.97
70571;BME280;58135;50.948;-1.458;2022-12-18T04:56:27;101496.05;;;4.67;16.03
70571;BME280;58135;50.948;-1.458;2022-12-18T04:58:52;101488.88;;;2.54;16.15
70571;BME280;58135;50.948;-1.458;2022-12-18T05:01:18;101485.97;;;3.50;16.24
70571;BME280;58135;50.948;-1.458;2022-12-18T05:03:43;101483.20;;;4.93;16.17
70571;BME280;58135;50.948;-1.458;2022-12-18T05:06:08;101470.90;;;3.60;15.96
70571;BME280;58135;50.948;-1.458;2022-12-18T05:08:33;101466.55;;;4.43;15.95
70571;BME280;58135;50.948;-1.458;2022-12-18T05:10:59;101473.32;;;3.93;15.87
70571;BME280;58135;50.948;-1.458;2022-12-18T05:13:23;101472.28;;;5.87;15.90
70571;BME280;58135;50.948;-1.458;2022-12-18T05:15:51;101472.45;;;4.84;15.91
70571;BME280;58135;50.948;-1.458;2022-12-18T05:18:14;101462.76;;;6.75;16.15
70571;BME280;58135;50.948;-1.458;2022-12-18T05:20:40;101460.22;;;6.02;16.21
70571;BME280;58135;50.948;-1.458;2022-12-18T05:23:05;101458.61;;;7.06;16.23
70571;BME280;58135;50.948;-1.458;2022-12-18T05:25:30;101464.11;;;5.19;16.17
70571;BME280;58135;50.948;-1.458;2022-12-18T05:27:55;101454.26;;;6.71;16.31
70571;BME280;58135;50.948;-1.458;2022-12-18T05:30:21;101445.02;;;4.97;16.25
70571;BME280;58135;50.948;-1.458;2022-12-18T05:32:46;101443.08;;;6.16;16.23
70571;BME280;58135;50.948;-1.458;2022-12-18T05:35:11;101435.50;;;5.25;16.15
70571;BME280;58135;50.948;-1.458;2022-12-18T05:37:36;101419.70;;;4.64;16.18
70571;BME280;58135;50.948;-1.458;2022-12-18T05:40:03;101414.26;;;7.10;16.15
70571;BME280;58135;50.948;-1.458;2022-12-18T05:42:28;101399.64;;;4.09;16.31
70571;BME280;58135;50.948;-1.458;2022-12-18T05:44:53;101394.32;;;5.76;16.37
70571;BME280;58135;50.948;-1.458;2022-12-18T05:47:19;101391.04;;;5.76;16.42
70571;BME280;58135;50.948;-1.458;2022-12-18T05:49:45;101372.27;;;6.45;16.45
70571;BME280;58135;50.948;-1.458;2022-12-18T05:52:10;101359.62;;;3.44;16.60
70571;BME280;58135;50.948;-1.458;2022-12-18T05:54:36;101363.69;;;6.07;16.73
70571;BME280;58135;50.948;-1.458;2022-12-18T05:57:02;101365.61;;;4.44;16.70
70571;BME280;58135;50.948;-1.458;2022-12-18T05:59:27;101367.08;;;3.87;16.61
70571;BME280;58135;50.948;-1.458;2022-12-18T06:01:52;101367.27;;;5.82;16.56
70571;BME280;58135;50.948;-1.458;2022-12-18T06:04:18;101363.48;;;4.16;16.60
70571;BME280;58135;50.948;-1.458;2022-12-18T06:06:43;101355.26;;;5.12;16.53
70571;BME280;58135;50.948;-1.458;2022-12-18T06:09:09;101354.32;;;3.38;16.55
70571;BME280;58135;50.948;-1.458;2022-12-18T06:11:35;101344.98;;;5.84;16.63
70571;BME280;58135;50.948;-1.458;2022-12-18T06:13:59;101347.95;;;3.64;16.57
70571;BME280;58135;50.948;-1.458;2022-12-18T06:16:25;101344.70;;;4.40;16.55
70571;BME280;58135;50.948;-1.458;2022-12-18T06:18:51;101349.47;;;6.25;16.61
70571;BME280;58135;50.948;-1.458;2022-12-18T06:21:16;101350.62;;;4.00;16.50
70571;BME280;58135;50.948;-1.458;2022-12-18T06:23:42;101352.72;;;5.78;16.45
70571;BME280;58135;50.948;-1.458;2022-12-18T06:26:10;101359.68;;;6.32;16.49
70571;BME280;58135;50.948;-1.458;2022-12-18T06:28:33;101357.94;;;4.66;16.44
70571;BME280;58135;50.948;-1.458;2022-12-18T06:30:59;101348.27;;;5.32;16.55
70571;BME280;58135;50.948;-1.458;2022-12-18T06:33:25;101346.20;;;3.93;16.48
70571;BME280;58135;50.948;-1.458;2022-12-18T06:35:49;101333.42;;;4.86;16.39
70571;BME280;58135;50.948;-1.458;2022-12-18T06:38:14;101333.42;;;4.89;16.30
70571;BME280;58135;50.948;-1.458;2022-12-18T06:40:40;101339.31;;;5.52;16.45
70571;BME280;58135;50.948;-1.458;2022-12-18T06:43:05;101340.25;;;3.51;16.44
70571;BME280;58135;50.948;-1.458;2022-12-18T06:45:31;101345.61;;;5.27;16.53
70571;BME280;58135;50.948;-1.458;2022-12-18T06:47:56;101347.48;;;5.05;16.57
70571;BME280;58135;50.948;-1.458;2022-12-18T06:50:21;101349.94;;;2.24;16.59
70571;BME280;58135;50.948;-1.458;2022-12-18T06:52:46;101355.78;;;3.74;16.43
70571;BME280;58135;50.948;-1.458;2022-12-18T06:55:12;101353.07;;;6.10;16.40
70571;BME280;58135;50.948;-1.458;2022-12-18T06:57:38;101357.29;;;7.35;16.16
70571;BME280;58135;50.948;-1.458;2022-12-18T07:00:05;101358.39;;;5.88;16.09
70571;BME280;58135;50.948;-1.458;2022-12-18T07:02:28;101359.84;;;6.47;16.15
70571;BME280;58135;50.948;-1.458;2022-12-18T07:04:54;101351.46;;;6.28;16.39
70571;BME280;58135;50.948;-1.458;2022-12-18T07:07:20;101342.49;;;5.65;16.26
70571;BME280;58135;50.948;-1.458;2022-12-18T07:09:45;101332.03;;;5.03;16.25
70571;BME280;58135;50.948;-1.458;2022-12-18T07:12:10;101336.94;;;5.44;16.14
70571;BME280;58135;50.948;-1.458;2022-12-18T07:14:35;101334.67;;;4.79;15.96
70571;BME280;58135;50.948;-1.458;2022-12-18T07:17:00;101331.73;;;5.26;16.15
70571;BME280;58135;50.948;-1.458;2022-12-18T07:19:26;101335.05;;;4.33;16.20
70571;BME280;58135;50.948;-1.458;2022-12-18T07:21:51;101344.49;;;6.58;16.37
70571;BME280;58135;50.948;-1.458;2022-12-18T07:24:17;101349.08;;;5.72;16.34
70571;BME280;58135;50.948;-1.458;2022-12-18T07:26:45;101348.25;;;4.92;16.34
70571;BME280;58135;50.948;-1.458;2022-12-18T07:29:08;101340.80;;;5.90;16.41
70571;BME280;58135;50.948;-1.458;2022-12-18T07:31:33;101335.62;;;4.96;16.37
70571;BME280;58135;50.948;-1.458;2022-12-18T07:33:59;101329.44;;;4.91;16.42
70571;BME280;58135;50.948;-1.458;2022-12-18T07:36:25;101336.57;;;4.89;16.43
70571;BME280;58135;50.948;-1.458;2022-12-18T07:38:50;101335.60;;;4.64;16.55
70571;BME280;58135;50.948;-1.458;2022-12-18T07:41:15;101322.14;;;3.93;16.80
70571;BME280;58135;50.948;-1.458;2022-12-18T07:43:41;101325.17;;;3.43;16.65
70571;BME280;58135;50.948;-1.458;2022-12-18T07:46:07;101324.10;;;3.78;16.66
70571;BME280;58135;50.948;-1.458;2022-12-18T07:48:32;101326.16;;;6.27;16.42
70571;BME280;58135;50.948;-1.458;2022-12-18T07:50:58;101327.54;;;5.86;16.39
70571;BME280;58135;50.948;-1.458;2022-12-18T07:53:23;101325.17;;;6.87;16.24
70571;BME280;58135;50.948;-1.458;2022-12-18T07:55:48;101337.21;;;7.03;16.21
70571;BME280;58135;50.948;-1.458;2022-12-18T07:58:14;101326.50;;;5.59;16.15
70571;BME280;58135;50.948;-1.458;2022-12-18T08:00:39;101325.75;;;6.66;16.10
70571;BME280;58135;50.948;-1.458;2022-12-18T08:03:05;101332.88;;;6.93;16.02
70571;BME280;58135;50.948;-1.458;2022-12-18T08:05:30;101347.97;;;7.72;16.01
70571;BME280;58135;50.948;-1.458;2022-12-18T08:07:55;101341.80;;;3.59;15.96
70571;BME280;58135;50.948;-1.458;2022-12-18T08:10:21;101325.85;;;6.16;16.00
70571;BME280;58135;50.948;-1.458;2022-12-18T08:12:49;101319.90;;;6.86;15.95
70571;BME280;58135;50.948;-1.458;2022-12-18T08:15:12;101318.64;;;5.84;16.09
70571;BME280;58135;50.948;-1.458;2022-12-18T08:17:37;101319.50;;;4.81;16.19
70571;BME280;58135;50.948;-1.458;2022-12-18T08:20:03;101336.44;;;5.78;16.18
70571;BME280;58135;50.948;-1.458;2022-12-18T08:22:28;101344.50;;;7.72;16.18
70571;BME280;58135;50.948;-1.458;2022-12-18T08:24:54;101341.86;;;6.22;16.10
70571;BME280;58135;50.948;-1.458;2022-12-18T08:27:19;101347.02;;;7.23;16.06
70571;BME280;58135;50.948;-1.458;2022-12-18T08:29:45;101352.86;;;6.11;16.11
70571;BME280;58135;50.948;-1.458;2022-12-18T08:32:10;101355.66;;;5.65;16.27
70571;BME280;58135;50.948;-1.458;2022-12-18T08:34:36;101350.82;;;5.43;16.38
70571;BME280;58135;50.948;-1.458;2022-12-18T08:37:01;101352.63;;;6.36;16.41
70571;BME280;58135;50.948;-1.458;2022-12-18T08:39:26;101347.20;;;7.37;16.38
70571;BME280;58135;50.948;-1.458;2022-12-18T08:41:52;101349.55;;;5.74;16.41
70571;BME280;58135;50.948;-1.458;2022-12-18T08:44:17;101350.38;;;7.49;16.55
70571;BME280;58135;50.948;-1.458;2022-12-18T08:46:43;101340.47;;;4.02;16.61
70571;BME280;58135;50.948;-1.458;2022-12-18T08:49:09;101341.67;;;7.59;16.64
70571;BME280;58135;50.948;-1.458;2022-12-18T08:51:34;101347.07;;;6.52;16.71
70571;BME280;58135;50.948;-1.458;2022-12-18T08:54:00;101339.83;;;4.69;16.85
70571;BME280;58135;50.948;-1.458;2022-12-18T08:56:25;101342.10;;;6.26;17.00
70571;BME280;58135;50.948;-1.458;2022-12-18T08:58:53;101337.60;;;4.56;16.98
70571;BME280;58135;50.948;-1.458;2022-12-18T09:01:16;101333.86;;;5.24;17.16
70571;BME280;58135;50.948;-1.458;2022-12-18T09:03:41;101328.08;;;4.04;17.19
70571;BME280;58135;50.948;-1.458;2022-12-18T09:06:07;101329.19;;;5.83;17.27
70571;BME280;58135;50.948;-1.458;2022-12-18T09:08:32;101331.60;;;4.87;17.37
70571;BME280;58135;50.948;-1.458;2022-12-18T09:10:58;101322.18;;;5.53;17.46
70571;BME280;58135;50.948;-1.458;2022-12-18T09:13:24;101313.32;;;5.23;17.66
70571;BME280;58135;50.948;-1.458;2022-12-18T09:15:51;101313.18;;;3.20;17.73
70571;BME280;58135;50.948;-1.458;2022-12-18T09:18:17;101303.96;;;5.13;17.74
70571;BME280;58135;50.948;-1.458;2022-12-18T09:20:41;101296.13;;;3.22;17.79
70571;BME280;58135;50.948;-1.458;2022-12-18T09:23:07;101292.95;;;5.63;17.85
70571;BME280;58135;50.948;-1.458;2022-12-18T09:25:33;101298.94;;;3.98;17.87
70571;BME280;58135;50.948;-1.458;2022-12-18T09:27:57;101298.89;;;4.08;17.79
70571;BME280;58135;50.948;-1.458;2022-12-18T09:30:22;101298.73;;;5.02;17.90
70571;BME280;58135;50.948;-1.458;2022-12-18T09:32:48;101299.89;;;3.90;17.87
70571;BME280;58135;50.948;-1.458;2022-12-18T09:35:13;101297.98;;;3.95;17.79
70571;BME280;58135;50.948;-1.458;2022-12-18T09:37:38;101296.76;;;4.21;18.02
70571;BME280;58135;50.948;-1.458;2022-12-18T09:40:05;101289.87;;;3.95;17.77
70571;BME280;58135;50.948;-1.458;2022-12-18T09:42:29;101275.16;;;5.98;18.24
70571;BME280;58135;50.948;-1.458;2022-12-18T09:44:55;101268.02;;;2.83;18.44
70571;BME280;58135;50.948;-1.458;2022-12-18T09:47:23;101260.75;;;2.56;18.37
70571;BME280;58135;50.948;-1.458;2022-12-18T09:49:46;101255.68;;;4.50;18.67
70571;BME280;58135;50.948;-1.458;2022-12-18T09:52:16;101260.14;;;4.34;18.70
70571;BME280;58135;50.948;-1.458;2022-12-18T09:54:38;101271.25;;;3.46;18.66
70571;BME280;58135;50.948;-1.458;2022-12-18T09:57:00;101281.63;;;3.76;18.29
70571;BME280;58135;50.948;-1.458;2022-12-18T09:59:30;101274.66;;;4.73;18.29
70571;BME280;58135;50.948;-1.458;2022-12-18T10:01:51;101272.97;;;5.60;18.78
70571;BME280;58135;50.948;-1.458;2022-12-18T10:04:16;101282.49;;;4.48;18.79
70571;BME280;58135;50.948;-1.458;2022-12-18T10:06:47;101285.55;;;5.74;18.94
70571;BME280;58135;50.948;-1.458;2022-12-18T10:09:12;101279.25;;;3.11;18.74
70571;BME280;58135;50.948;-1.458;2022-12-18T10:11:39;101273.42;;;4.04;18.53
70571;BME280;58135;50.948;-1.458;2022-12-18T10:14:02;101265.13;;;3.63;18.79
70571;BME280;58135;50.948;-1.458;2022-12-18T10:16:29;101269.18;;;3.56;19.08
70571;BME280;58135;50.948;-1.458;2022-12-18T10:19:01;101266.01;;;2.80;18.97
70571;BME280;58135;50.948;-1.458;2022-12-18T10:21:16;101271.84;;;3.45;18.71
70571;BME280;58135;50.948;-1.458;2022-12-18T10:23:43;101271.88;;;3.45;18.80
70571;BME280;58135;50.948;-1.458;2022-12-18T10:26:05;101265.83;;;4.42;18.90
70571;BME280;58135;50.948;-1.458;2022-12-18T10:28:31;101255.07;;;2.80;19.23
70571;BME280;58135;50.948;-1.458;2022-12-18T10:30:55;101255.71;;;3.69;19.11
70571;BME280;58135;50.948;-1.458;2022-12-18T10:33:22;101256.00;;;3.79;19.32
70571;BME280;58135;50.948;-1.458;2022-12-18T10:35:48;101257.23;;;3.21;19.22
70571;BME280;58135;50.948;-1.458;2022-12-18T10:38:22;101249.27;;;4.00;18.82
70571;BME280;58135;50.948;-1.458;2022-12-18T10:43:04;101239.68;;;4.38;18.96
70571;BME280;58135;50.948;-1.458;2022-12-18T10:45:29;101232.66;;;4.51;19.51
70571;BME280;58135;50.948;-1.458;2022-12-18T10:47:54;101219.94;;;3.61;19.95
70571;BME280;58135;50.948;-1.458;2022-12-18T10:50:24;101211.67;;;4.35;19.54
70571;BME280;58135;50.948;-1.458;2022-12-18T10:52:53;101203.67;;;2.47;19.65
70571;BME280;58135;50.948;-1.458;2022-12-18T10:55:16;101206.47;;;2.88;20.40
70571;BME280;58135;50.948;-1.458;2022-12-18T10:57:36;101197.13;;;2.90;20.13
70571;BME280;58135;50.948;-1.458;2022-12-18T11:02:28;101173.80;;;4.23;20.20
70571;BME280;58135;50.948;-1.458;2022-12-18T11:04:52;101171.48;;;3.33;19.92
70571;BME280;58135;50.948;-1.458;2022-12-18T11:07:17;101170.00;;;4.11;20.19
70571;BME280;58135;50.948;-1.458;2022-12-18T11:09:43;101163.73;;;2.38;20.45
70571;BME280;58135;50.948;-1.458;2022-12-18T11:12:14;101151.58;;;3.39;20.64
70571;BME280;58135;50.948;-1.458;2022-12-18T11:14:41;101146.13;;;4.72;20.21
70571;BME280;58135;50.948;-1.458;2022-12-18T11:17:00;101136.24;;;3.57;20.27
70571;BME280;58135;50.948;-1.458;2022-12-18T11:19:31;101138.48;;;2.91;20.63
70571;BME280;58135;50.948;-1.458;2022-12-18T11:21:50;101129.36;;;5.72;20.09
70571;BME280;58135;50.948;-1.458;2022-12-18T11:24:20;101130.22;;;5.00;20.25
70571;BME280;58135;50.948;-1.458;2022-12-18T11:26:40;101125.41;;;3.43;20.42
70571;BME280;58135;50.948;-1.458;2022-12-18T11:29:09;101126.00;;;4.17;20.75
70571;BME280;58135;50.948;-1.458;2022-12-18T11:31:31;101117.61;;;5.99;20.51
70571;BME280;58135;50.948;-1.458;2022-12-18T11:34:00;101116.11;;;2.50;20.81
70571;BME280;58135;50.948;-1.458;2022-12-18T11:36:22;101110.98;;;4.08;21.16
70571;BME280;58135;50.948;-1.458;2022-12-18T11:38:47;101102.67;;;5.21;20.84
70571;BME280;58135;50.948;-1.458;2022-12-18T11:41:18;101105.16;;;3.76;20.75
70571;BME280;58135;50.948;-1.458;2022-12-18T11:43:41;101092.98;;;4.66;20.97
70571;BME280;58135;50.948;-1.458;2022-12-18T11:46:06;101092.79;;;2.80;20.81
70571;BME280;58135;50.948;-1.458;2022-12-18T11:48:32;101088.71;;;4.54;21.16
70571;BME280;58135;50.948;-1.458;2022-12-18T11:50:56;101080.82;;;3.47;21.05
70571;BME280;58135;50.948;-1.458;2022-12-18T11:53:20;101075.11;;;4.83;20.66
70571;BME280;58135;50.948;-1.458;2022-12-18T11:55:53;101067.95;;;4.95;20.57
70571;BME280;58135;50.948;-1.458;2022-12-18T11:58:16;101052.51;;;5.51;20.79
70571;BME280;58135;50.948;-1.458;2022-12-18T12:00:40;101048.72;;;4.66;20.39
70571;BME280;58135;50.948;-1.458;2022-12-18T12:05:40;101035.68;;;3.20;20.71
70571;BME280;58135;50.948;-1.458;2022-12-18T12:07:55;101027.61;;;3.22;20.37
70571;BME280;58135;50.948;-1.458;2022-12-18T12:10:28;101019.46;;;5.14;20.66
70571;BME280;58135;50.948;-1.458;2022-12-18T12:12:53;101014.32;;;7.02;20.57
70571;BME280;58135;50.948;-1.458;2022-12-18T12:15:15;101013.47;;;5.61;21.16
70571;BME280;58135;50.948;-1.458;2022-12-18T12:17:36;100999.08;;;5.18;21.13
70571;BME280;58135;50.948;-1.458;2022-12-18T12:20:02;100989.11;;;5.13;20.57
70571;BME280;58135;50.948;-1.458;2022-12-18T12:22:27;100985.45;;;5.16;20.98
70571;BME280;58135;50.948;-1.458;2022-12-18T12:24:56;100983.44;;;5.13;21.26
70571;BME280;58135;50.948;-1.458;2022-12-18T12:27:20;100974.52;;;5.22;21.07
70571;BME280;58135;50.948;-1.458;2022-12-18T12:29:48;100970.86;;;5.65;21.23
70571;BME280;58135;50.948;-1.458;2022-12-18T12:32:15;100966.70;;;4.80;21.14
70571;BME280;58135;50.948;-1.458;2022-12-18T12:34:34;100966.04;;;6.20;21.49
70571;BME280;58135;50.948;-1.458;2022-12-18T12:37:07;100955.59;;;4.66;21.26
70571;BME280;58135;50.948;-1.458;2022-12-18T12:39:25;100955.50;;;5.29;21.62
70571;BME280;58135;50.948;-1.458;2022-12-18T12:41:47;100953.84;;;5.48;21.98
70571;BME280;58135;50.948;-1.458;2022-12-18T12:44:16;100955.17;;;6.68;21.99
70571;BME280;58135;50.948;-1.458;2022-12-18T12:46:40;100953.18;;;5.24;21.98